Terminal Aerodrome Forecast
Issued by NWS

Current Version | Previous Version | Text Only | Print | Product List | Glossary On
Versions: 1 2 3 4 5 6 7 8 9 10 11 12 13 14 15 16 17 18 19 20 21
986
FTUS46 KPDT 230520
TAFRDM
TAF
KRDM 230520Z 2306/2406 VRB04KT P6SM FEW050 BKN150
     FM231000 VRB04KT P6SM VCSH SCT030 BKN050
     FM231900 33009KT P6SM SCT050
     FM240300 VRB04KT P6SM BKN060=

USA.gov is the U.S. government's official web portal to all federal, state and local government web resources and services.